createdAt,value
2018-02-24T00:02:26.113Z,47.33
2018-02-24T00:04:53.540Z,46.17
2018-02-24T00:07:20.979Z,45.75
2018-02-24T00:09:48.390Z,45.59
2018-02-24T00:12:15.813Z,46.54
2018-02-24T00:14:43.230Z,46.74
2018-02-24T00:17:10.648Z,46.37
2018-02-24T00:19:38.067Z,46.49
2018-02-24T00:22:05.509Z,46.25
2018-02-24T00:24:32.913Z,45.45
2018-02-24T00:27:00.326Z,45.89
2018-02-24T00:29:27.753Z,46.37
2018-02-24T00:31:55.170Z,46.58
2018-02-24T00:34:22.592Z,45.48
2018-02-24T00:36:50.007Z,47.46
2018-02-24T00:39:17.441Z,46.35
2018-02-24T00:41:44.858Z,46.55
2018-02-24T00:44:12.270Z,46.41
2018-02-24T00:46:39.699Z,47.12
2018-02-24T00:49:07.114Z,48.29
2018-02-24T00:51:34.549Z,47.62
2018-02-24T00:54:01.968Z,46.33
2018-02-24T00:56:29.385Z,46.40
2018-02-24T00:58:56.809Z,46.97
2018-02-24T01:01:24.233Z,46.72
2018-02-24T01:03:51.651Z,47.39
2018-02-24T01:06:19.069Z,48.58
2018-02-24T01:08:46.502Z,47.50
2018-02-24T01:11:13.921Z,50.94
2018-02-24T01:13:41.334Z,49.46
2018-02-24T01:16:08.770Z,48.78
2018-02-24T01:18:36.202Z,49.11
2018-02-24T01:21:03.658Z,49.70
2018-02-24T01:23:31.075Z,49.63
2018-02-24T01:25:58.507Z,49.26
2018-02-24T01:28:25.933Z,48.71
2018-02-24T01:30:53.358Z,49.14
2018-02-24T01:33:20.790Z,49.05
2018-02-24T01:35:48.215Z,48.71
2018-02-24T01:38:15.630Z,49.50
2018-02-24T01:40:43.070Z,53.10
2018-02-24T01:43:10.480Z,50.38
2018-02-24T01:45:37.909Z,49.96
2018-02-24T01:48:05.329Z,52.11
2018-02-24T01:50:41.616Z,51.56
2018-02-24T01:53:09.049Z,50.51
2018-02-24T01:55:36.462Z,50.51
2018-02-24T01:58:03.882Z,50.03
2018-02-24T02:00:31.298Z,50.73
2018-02-24T02:02:58.722Z,49.76
2018-02-24T02:05:26.163Z,49.98
2018-02-24T02:07:53.594Z,49.65
2018-02-24T02:10:21.011Z,52.59
2018-02-24T02:12:48.427Z,51.49
2018-02-24T02:15:15.857Z,50.03
2018-02-24T02:17:43.273Z,50.29
2018-02-24T02:20:10.701Z,50.68
2018-02-24T02:22:38.104Z,50.47
2018-02-24T02:25:05.533Z,49.06
2018-02-24T02:27:32.974Z,50.14
2018-02-24T02:30:00.390Z,50.49
2018-02-24T02:32:27.827Z,51.50
2018-02-24T02:35:01.249Z,52.86
2018-02-24T02:37:28.690Z,52.41
2018-02-24T02:39:56.102Z,52.48
2018-02-24T02:42:23.541Z,51.82
2018-02-24T02:44:50.950Z,51.51
2018-02-24T02:47:18.366Z,53.09
2018-02-24T02:49:45.795Z,52.09
2018-02-24T02:52:13.203Z,52.57
2018-02-24T02:54:40.629Z,52.61
2018-02-24T02:57:08.100Z,52.48
2018-02-24T02:59:35.489Z,53.64
2018-02-24T03:02:02.911Z,54.04
2018-02-24T03:04:30.327Z,54.25
2018-02-24T03:06:57.752Z,54.03
2018-02-24T03:09:25.171Z,53.65
2018-02-24T03:11:52.594Z,52.26
2018-02-24T03:14:20.020Z,52.07
2018-02-24T03:16:47.430Z,50.49
2018-02-24T03:19:14.854Z,50.22
2018-02-24T03:21:42.273Z,48.04
2018-02-24T03:24:09.706Z,49.07
2018-02-24T03:26:37.122Z,48.34
2018-02-24T03:29:04.555Z,47.86
2018-02-24T03:31:32.055Z,48.07
2018-02-24T03:33:59.397Z,49.18
2018-02-24T03:36:26.826Z,50.39
2018-02-24T03:38:54.243Z,49.65
2018-02-24T03:41:21.686Z,48.84
2018-02-24T03:43:49.115Z,48.39
2018-02-24T03:46:22.053Z,48.71
2018-02-24T03:48:49.469Z,49.41
2018-02-24T03:51:16.890Z,49.25
2018-02-24T03:53:44.315Z,49.86
2018-02-24T03:56:11.726Z,50.61
2018-02-24T03:58:39.162Z,51.44
2018-02-24T04:01:06.578Z,52.70
2018-02-24T04:03:34.000Z,53.78
2018-02-24T04:06:01.422Z,54.24
2018-02-24T04:08:28.838Z,53.49
2018-02-24T04:10:56.284Z,54.10
2018-02-24T04:13:23.714Z,53.52
2018-02-24T04:15:51.183Z,54.39
2018-02-24T04:18:18.600Z,54.90
2018-02-24T04:20:46.018Z,54.97
2018-02-24T04:23:13.446Z,54.86
2018-02-24T04:25:40.874Z,54.48
2018-02-24T04:28:08.294Z,53.91
2018-02-24T04:30:35.710Z,54.64
2018-02-24T04:33:03.156Z,52.82
2018-02-24T04:35:30.586Z,52.37
2018-02-24T04:37:57.997Z,52.52
2018-02-24T04:40:25.421Z,52.81
2018-02-24T04:42:52.837Z,53.07
2018-02-24T04:45:20.262Z,52.84
2018-02-24T04:47:47.682Z,51.80
2018-02-24T04:50:15.128Z,51.60
2018-02-24T04:52:42.546Z,49.72
2018-02-24T04:55:09.965Z,49.60
2018-02-24T04:57:37.392Z,48.55
2018-02-24T05:00:04.805Z,48.59
2018-02-24T05:02:32.229Z,48.57
2018-02-24T05:04:59.646Z,49.51
2018-02-24T05:07:27.080Z,48.67
2018-02-24T05:09:54.497Z,49.78
2018-02-24T05:12:21.923Z,49.72
2018-02-24T05:14:49.342Z,49.08
2018-02-24T05:17:16.769Z,48.89
2018-02-24T05:19:44.194Z,48.70
2018-02-24T05:22:11.603Z,48.32
2018-02-24T05:24:39.056Z,49.12
2018-02-24T05:27:06.471Z,48.93
2018-02-24T05:29:33.885Z,48.57
2018-02-24T05:32:01.311Z,48.10
2018-02-24T05:34:28.726Z,48.65
2018-02-24T05:36:56.161Z,48.55
2018-02-24T05:39:23.578Z,48.39
2018-02-24T05:41:51.019Z,48.67
2018-02-24T05:44:18.445Z,48.37
2018-02-24T05:46:45.870Z,49.00
2018-02-24T05:49:13.287Z,48.35
2018-02-24T05:51:40.714Z,47.72
2018-02-24T05:54:08.133Z,47.82
2018-02-24T05:56:35.546Z,48.38
2018-02-24T05:59:02.982Z,47.69
2018-02-24T06:01:30.400Z,48.79
2018-02-24T06:03:57.822Z,53.21
2018-02-24T06:06:25.251Z,47.95
2018-02-24T06:08:52.672Z,48.45
2018-02-24T06:11:20.089Z,48.63
2018-02-24T06:13:47.510Z,47.72
2018-02-24T06:16:14.974Z,49.63
2018-02-24T06:18:42.404Z,48.22
2018-02-24T06:21:09.822Z,47.49
2018-02-24T06:23:37.250Z,48.46
2018-02-24T06:26:04.666Z,46.73
2018-02-24T06:28:32.086Z,46.47
2018-02-24T06:30:59.506Z,46.93
2018-02-24T06:33:26.942Z,46.66
2018-02-24T06:35:54.373Z,47.23
2018-02-24T06:38:21.782Z,45.44
2018-02-24T06:40:49.206Z,44.90
2018-02-24T06:43:16.624Z,44.90
2018-02-24T06:45:44.062Z,45.13
2018-02-24T06:48:11.486Z,44.84
2018-02-24T06:50:38.914Z,44.39
2018-02-24T06:53:16.303Z,44.13
2018-02-24T06:55:43.774Z,44.04
2018-02-24T06:58:11.190Z,44.07
2018-02-24T07:00:38.610Z,43.83
2018-02-24T07:03:06.039Z,43.88
2018-02-24T07:05:33.454Z,42.72
2018-02-24T07:08:00.879Z,43.56
2018-02-24T07:10:28.294Z,43.86
2018-02-24T07:12:55.750Z,45.27
2018-02-24T07:15:23.158Z,44.41
2018-02-24T07:17:50.595Z,43.43
2018-02-24T07:20:18.009Z,43.27
2018-02-24T07:22:45.430Z,42.59
2018-02-24T07:25:12.874Z,43.42
2018-02-24T07:27:40.295Z,43.87
2018-02-24T07:30:07.714Z,43.50
2018-02-24T07:32:35.138Z,42.52
2018-02-24T07:35:02.571Z,42.51
2018-02-24T07:37:29.999Z,42.53
2018-02-24T07:39:57.415Z,43.37
2018-02-24T07:42:24.835Z,42.75
2018-02-24T07:44:52.265Z,42.95
2018-02-24T07:47:19.674Z,43.29
2018-02-24T07:49:47.142Z,42.54
2018-02-24T07:52:14.557Z,42.50
2018-02-24T07:54:41.982Z,42.56
2018-02-24T07:57:09.410Z,43.19
2018-02-24T07:59:36.826Z,42.63
2018-02-24T08:02:04.266Z,41.82
2018-02-24T08:04:31.678Z,41.81
2018-02-24T08:06:59.101Z,42.18
2018-02-24T08:09:26.517Z,42.15
2018-02-24T08:11:53.929Z,42.04
2018-02-24T08:14:21.370Z,41.36
2018-02-24T08:16:48.782Z,41.34
2018-02-24T08:19:16.193Z,41.33
2018-02-24T08:21:43.629Z,40.63
2018-02-24T08:24:11.042Z,40.38
2018-02-24T08:26:38.475Z,42.04
2018-02-24T08:29:05.883Z,41.39
2018-02-24T08:31:33.299Z,41.73
2018-02-24T08:34:00.723Z,40.31
2018-02-24T08:36:28.138Z,40.34
2018-02-24T08:38:55.566Z,40.11
2018-02-24T08:41:22.978Z,40.64
2018-02-24T08:43:50.386Z,40.99
2018-02-24T08:46:17.813Z,40.73
2018-02-24T08:48:45.236Z,39.88
2018-02-24T08:51:12.658Z,39.93
2018-02-24T08:53:40.078Z,40.53
2018-02-24T08:56:07.499Z,40.27
2018-02-24T08:58:34.933Z,40.00
2018-02-24T09:01:02.365Z,39.76
2018-02-24T09:03:29.774Z,39.86
2018-02-24T09:05:57.206Z,40.10
2018-02-24T09:08:24.624Z,39.25
2018-02-24T09:10:52.038Z,38.70
2018-02-24T09:13:19.498Z,39.32
2018-02-24T09:15:46.922Z,38.75
2018-02-24T09:18:14.341Z,38.26
2018-02-24T09:20:41.844Z,39.70
2018-02-24T09:23:09.262Z,39.21
2018-02-24T09:25:36.738Z,39.07
2018-02-24T09:28:04.182Z,38.08
2018-02-24T09:30:31.606Z,38.05
2018-02-24T09:32:59.032Z,37.65
2018-02-24T09:35:26.469Z,38.30
2018-02-24T09:37:53.885Z,36.98
2018-02-24T09:40:21.318Z,38.24
2018-02-24T09:42:48.742Z,36.84
2018-02-24T09:45:16.158Z,36.08
2018-02-24T09:47:43.594Z,35.68
2018-02-24T09:50:11.031Z,37.07
2018-02-24T09:52:38.453Z,36.32
2018-02-24T09:55:05.880Z,35.58
2018-02-24T09:57:37.305Z,35.25
2018-02-24T10:00:04.717Z,35.16
2018-02-24T10:02:32.156Z,36.05
2018-02-24T10:04:59.586Z,35.53
2018-02-24T10:07:27.001Z,34.81
2018-02-24T10:09:54.421Z,34.64
2018-02-24T10:12:21.862Z,34.47
2018-02-24T10:14:49.326Z,34.82
2018-02-24T10:17:16.751Z,33.63
2018-02-24T10:19:44.178Z,33.71
2018-02-24T10:22:11.622Z,33.68
2018-02-24T10:24:39.035Z,33.25
2018-02-24T10:27:06.465Z,33.37
2018-02-24T10:29:33.891Z,34.27
2018-02-24T10:32:01.336Z,32.09
2018-02-24T10:34:28.754Z,32.54
2018-02-24T10:36:56.171Z,31.76
2018-02-24T10:39:23.581Z,31.67
2018-02-24T10:41:51.008Z,32.42
2018-02-24T10:44:18.535Z,30.78
2018-02-24T10:46:45.943Z,31.52
2018-02-24T10:49:14.914Z,30.82
2018-02-24T10:51:42.327Z,30.57
2018-02-24T10:54:09.747Z,30.98
2018-02-24T10:56:37.175Z,29.53
2018-02-24T10:59:05.574Z,30.22
2018-02-24T11:01:32.997Z,29.26
2018-02-24T11:04:00.421Z,30.27
2018-02-24T11:06:28.006Z,29.13
2018-02-24T11:08:55.414Z,30.54
2018-02-24T11:11:22.870Z,30.46
2018-02-24T11:13:50.266Z,30.17
2018-02-24T11:16:17.699Z,30.16
2018-02-24T11:18:45.155Z,30.61
2018-02-24T11:21:12.602Z,30.51
2018-02-24T11:23:40.054Z,31.01
2018-02-24T11:26:07.494Z,31.27
2018-02-24T11:28:34.986Z,31.22
2018-02-24T11:31:02.410Z,31.87
2018-02-24T11:33:29.865Z,32.35
2018-02-24T11:35:57.281Z,31.21
2018-02-24T11:38:24.697Z,31.62
2018-02-24T11:40:52.122Z,31.99
2018-02-24T11:43:19.604Z,31.38
2018-02-24T11:45:47.018Z,30.67
2018-02-24T11:48:14.447Z,32.28
2018-02-24T11:50:41.862Z,33.22
2018-02-24T11:53:09.299Z,32.73
2018-02-24T11:55:36.740Z,33.24
2018-02-24T11:58:04.138Z,33.45
2018-02-24T12:00:31.550Z,34.60
2018-02-24T12:03:00.015Z,33.69
2018-02-24T12:05:27.504Z,34.17
2018-02-24T12:07:55.030Z,34.32
2018-02-24T12:10:22.478Z,33.86
2018-02-24T12:12:49.889Z,34.64
2018-02-24T12:15:17.299Z,34.54
2018-02-24T12:17:44.757Z,33.00
2018-02-24T12:20:12.207Z,34.39
2018-02-24T12:22:39.643Z,35.21
2018-02-24T12:25:07.071Z,35.97
2018-02-24T12:27:34.500Z,35.37
2018-02-24T12:30:01.918Z,35.97
2018-02-24T12:32:29.354Z,35.58
2018-02-24T12:34:56.766Z,35.10
2018-02-24T12:37:24.188Z,35.67
2018-02-24T12:39:51.675Z,36.80
2018-02-24T12:42:19.089Z,34.94
2018-02-24T12:44:46.505Z,36.02
2018-02-24T12:47:13.930Z,37.03
2018-02-24T12:49:41.512Z,36.75
2018-02-24T12:52:08.774Z,37.50
2018-02-24T12:54:36.201Z,37.40
2018-02-24T12:57:03.619Z,38.12
2018-02-24T12:59:31.030Z,37.97
2018-02-24T13:01:58.594Z,37.45
2018-02-24T13:04:26.293Z,37.55
2018-02-24T13:06:54.197Z,37.85
2018-02-24T13:09:21.642Z,37.67
2018-02-24T13:11:49.059Z,37.08
2018-02-24T13:14:16.524Z,38.34
2018-02-24T13:16:44.046Z,37.49
2018-02-24T13:19:11.455Z,38.46
2018-02-24T13:21:38.870Z,38.30
2018-02-24T13:24:06.298Z,39.43
2018-02-24T13:26:33.716Z,37.59
2018-02-24T13:29:01.126Z,38.59
2018-02-24T13:31:28.586Z,38.74
2018-02-24T13:33:56.114Z,39.00
2018-02-24T13:36:23.530Z,39.52
2018-02-24T13:38:50.963Z,40.12
2018-02-24T13:41:18.374Z,39.64
2018-02-24T13:43:45.803Z,39.72
2018-02-24T13:46:13.216Z,39.14
2018-02-24T13:48:40.635Z,39.27
2018-02-24T13:51:08.046Z,39.90
2018-02-24T13:53:35.474Z,39.24
2018-02-24T13:56:02.881Z,40.81
2018-02-24T13:58:30.289Z,40.05
2018-02-24T14:00:57.739Z,39.17
2018-02-24T14:03:25.149Z,39.92
2018-02-24T14:05:52.571Z,40.27
2018-02-24T14:08:19.998Z,41.06
2018-02-24T14:10:47.419Z,41.62
2018-02-24T14:13:14.831Z,42.11
2018-02-24T14:15:42.257Z,41.87
2018-02-24T14:18:09.683Z,41.47
2018-02-24T14:20:37.819Z,41.99
2018-02-24T14:23:05.273Z,42.09
2018-02-24T14:25:33.545Z,42.05
2018-02-24T14:28:00.989Z,43.09
2018-02-24T14:30:28.420Z,43.62
2018-02-24T14:32:55.852Z,43.76
2018-02-24T14:35:23.298Z,43.75
2018-02-24T14:37:50.754Z,44.39
2018-02-24T14:40:18.174Z,44.48
2018-02-24T14:42:45.648Z,44.95
2018-02-24T14:45:13.129Z,44.87
2018-02-24T14:47:40.514Z,44.91
2018-02-24T14:50:08.040Z,44.95
2018-02-24T14:52:35.828Z,44.73
2018-02-24T14:55:03.251Z,45.04
2018-02-24T14:57:30.675Z,43.08
2018-02-24T14:59:58.103Z,41.65
2018-02-24T15:02:26.717Z,42.73
2018-02-24T15:04:54.377Z,41.87
2018-02-24T15:07:21.828Z,42.07
2018-02-24T15:09:49.251Z,43.21
2018-02-24T15:12:16.682Z,43.14
2018-02-24T15:14:44.110Z,43.43
2018-02-24T15:17:11.520Z,43.30
2018-02-24T15:19:38.954Z,43.40
2018-02-24T15:22:06.382Z,43.38
2018-02-24T15:24:33.796Z,44.48
2018-02-24T15:27:01.214Z,44.96
2018-02-24T15:29:28.662Z,45.08
2018-02-24T15:31:56.079Z,44.51
2018-02-24T15:34:23.502Z,44.33
2018-02-24T15:36:50.939Z,44.51
2018-02-24T15:39:18.367Z,45.74
2018-02-24T15:41:45.782Z,45.62
2018-02-24T15:44:13.250Z,46.41
2018-02-24T15:46:40.654Z,45.20
2018-02-24T15:49:08.087Z,45.32
2018-02-24T15:51:36.557Z,45.57
2018-02-24T15:54:04.063Z,45.99
2018-02-24T15:56:31.665Z,45.90
2018-02-24T15:58:59.126Z,46.05
2018-02-24T16:01:26.555Z,46.07
2018-02-24T16:03:53.974Z,46.61
2018-02-24T16:06:21.411Z,46.82
2018-02-24T16:08:50.903Z,47.18
2018-02-24T16:13:57.374Z,47.28
2018-02-24T16:16:30.170Z,47.42
2018-02-24T16:19:00.691Z,47.50
2018-02-24T16:21:31.461Z,48.11
2018-02-24T16:23:58.894Z,48.68
2018-02-24T16:26:26.346Z,48.01
2018-02-24T16:28:53.771Z,48.72
2018-02-24T16:31:21.219Z,48.42
2018-02-24T16:33:48.986Z,48.76
2018-02-24T16:36:16.408Z,49.13
2018-02-24T16:38:43.827Z,48.61
2018-02-24T16:41:11.279Z,48.76
2018-02-24T16:43:38.700Z,48.79
2018-02-24T16:46:06.115Z,49.08
2018-02-24T16:48:33.795Z,48.67
2018-02-24T16:51:01.206Z,48.59
2018-02-24T16:53:28.623Z,48.83
2018-02-24T16:55:56.078Z,49.42
2018-02-24T16:58:23.498Z,49.72
2018-02-24T17:00:50.939Z,49.65
2018-02-24T17:03:18.382Z,50.12
2018-02-24T17:05:45.808Z,49.92
2018-02-24T17:08:13.551Z,49.97
2018-02-24T17:10:45.235Z,50.16
2018-02-24T17:13:12.678Z,50.92
2018-02-24T17:15:40.109Z,50.25
2018-02-24T17:18:07.553Z,51.04
2018-02-24T17:20:34.970Z,51.83
2018-02-24T17:23:03.091Z,50.72
2018-02-24T17:25:30.527Z,51.57
2018-02-24T17:27:57.939Z,50.54
2018-02-24T17:30:25.362Z,50.62
2018-02-24T17:32:52.790Z,50.94
2018-02-24T17:35:21.226Z,50.64
2018-02-24T17:37:48.651Z,51.20
2018-02-24T17:40:16.100Z,50.58
2018-02-24T17:42:43.550Z,51.24
2018-02-24T17:45:10.958Z,51.94
2018-02-24T17:47:38.403Z,51.04
2018-02-24T17:50:05.927Z,51.05
2018-02-24T17:52:33.373Z,51.22
2018-02-24T17:55:00.798Z,51.17
2018-02-24T17:57:30.090Z,51.27
2018-02-24T17:59:58.510Z,50.62
2018-02-24T18:02:29.086Z,50.04
2018-02-24T18:04:57.212Z,50.41
2018-02-24T18:07:27.370Z,50.99
2018-02-24T18:09:56.127Z,50.14
2018-02-24T18:12:24.445Z,50.07
2018-02-24T18:14:54.688Z,50.44
2018-02-24T18:17:24.681Z,50.11
2018-02-24T18:19:52.715Z,50.28
2018-02-24T18:22:20.536Z,50.01
2018-02-24T18:24:48.266Z,50.79
2018-02-24T18:27:28.207Z,50.15
2018-02-24T18:29:55.647Z,50.25
2018-02-24T18:32:23.091Z,49.81
2018-02-24T18:34:51.941Z,49.95
2018-02-24T18:37:19.601Z,49.80
2018-02-24T18:39:47.313Z,49.34
2018-02-24T18:42:15.096Z,49.25
2018-02-24T18:44:42.787Z,49.87
2018-02-24T18:47:10.437Z,49.87
2018-02-24T18:49:38.256Z,49.62
2018-02-24T18:52:05.915Z,49.27
2018-02-24T18:54:33.570Z,49.44
2018-02-24T18:57:01.299Z,50.02
2018-02-24T18:59:28.960Z,50.01
2018-02-24T19:01:56.805Z,50.35
2018-02-24T19:04:24.472Z,49.94
2018-02-24T19:06:52.165Z,50.85
2018-02-24T19:09:19.840Z,50.43
2018-02-24T19:11:47.691Z,50.49
2018-02-24T19:14:16.231Z,50.21
2018-02-24T19:16:43.895Z,50.56
2018-02-24T19:19:11.377Z,49.98
2018-02-24T19:21:38.801Z,50.08
2018-02-24T19:24:06.238Z,50.34
2018-02-24T19:26:33.681Z,49.85
2018-02-24T19:29:01.111Z,50.66
2018-02-24T19:31:28.534Z,49.39
2018-02-24T19:33:55.975Z,49.09
2018-02-24T19:36:23.404Z,49.86
2018-02-24T19:38:50.847Z,49.98
2018-02-24T19:41:18.302Z,49.72
2018-02-24T19:43:45.719Z,49.55
2018-02-24T19:46:13.185Z,49.29
2018-02-24T19:48:40.622Z,48.98
2018-02-24T19:51:08.094Z,48.42
2018-02-24T19:53:35.510Z,48.48
2018-02-24T19:56:02.941Z,48.72
2018-02-24T19:58:30.458Z,48.28
2018-02-24T20:00:57.909Z,47.54
2018-02-24T20:03:25.338Z,47.68
2018-02-24T20:05:52.754Z,47.49
2018-02-24T20:08:20.166Z,47.84
2018-02-24T20:10:48.522Z,47.91
2018-02-24T20:13:15.915Z,47.48
2018-02-24T20:15:44.306Z,47.42
2018-02-24T20:18:11.782Z,47.84
2018-02-24T20:20:39.153Z,48.07
2018-02-24T20:23:06.579Z,47.64
2018-02-24T20:25:34.011Z,47.28
2018-02-24T20:28:01.526Z,48.23
2018-02-24T20:30:28.960Z,47.34
2018-02-24T20:32:56.418Z,47.77
2018-02-24T20:35:24.835Z,47.44
2018-02-24T20:37:52.263Z,47.73
2018-02-24T20:40:19.703Z,48.10
2018-02-24T20:42:47.111Z,48.32
2018-02-24T20:45:14.530Z,48.81
2018-02-24T20:47:42.297Z,48.79
2018-02-24T20:50:09.712Z,48.33
2018-02-24T20:52:37.128Z,48.97
2018-02-24T20:55:04.577Z,48.80
2018-02-24T20:57:31.990Z,48.50
2018-02-24T20:59:59.403Z,48.75
2018-02-24T21:02:26.849Z,49.22
2018-02-24T21:04:54.254Z,49.40
2018-02-24T21:07:21.665Z,48.68
2018-02-24T21:09:49.426Z,48.63
2018-02-24T21:12:16.841Z,49.45
2018-02-24T21:14:44.272Z,49.57
2018-02-24T21:17:11.706Z,49.53
2018-02-24T21:19:39.124Z,49.95
2018-02-24T21:22:06.535Z,49.83
2018-02-24T21:24:33.975Z,48.97
2018-02-24T21:27:01.394Z,49.26
2018-02-24T21:29:28.830Z,49.25
2018-02-24T21:31:56.250Z,49.85
2018-02-24T21:34:23.678Z,49.19
2018-02-24T21:36:51.102Z,50.39
2018-02-24T21:39:18.560Z,49.06
2018-02-24T21:41:45.966Z,48.92
2018-02-24T21:44:13.390Z,48.96
2018-02-24T21:46:40.819Z,48.95
2018-02-24T21:49:08.252Z,48.84
2018-02-24T21:51:35.677Z,48.15
2018-02-24T21:54:03.126Z,47.31
2018-02-24T21:56:30.543Z,47.58
2018-02-24T21:58:57.972Z,47.82
2018-02-24T22:01:25.401Z,47.94
2018-02-24T22:03:52.822Z,48.61
2018-02-24T22:06:20.238Z,48.58
2018-02-24T22:08:47.667Z,48.13
2018-02-24T22:11:15.079Z,48.52
2018-02-24T22:13:42.493Z,48.50
2018-02-24T22:16:09.913Z,48.83
2018-02-24T22:18:37.338Z,48.01
2018-02-24T22:21:04.762Z,48.90
2018-02-24T22:23:32.202Z,49.33
2018-02-24T22:25:59.614Z,49.17
2018-02-24T22:28:27.034Z,49.07
2018-02-24T22:30:54.469Z,48.89
2018-02-24T22:33:21.937Z,48.47
2018-02-24T22:35:49.321Z,48.27
2018-02-24T22:38:16.779Z,49.32
2018-02-24T22:40:44.203Z,48.91
2018-02-24T22:43:11.626Z,49.32
2018-02-24T22:45:39.073Z,49.07
2018-02-24T22:48:11.973Z,48.63
2018-02-24T22:50:39.406Z,49.38
2018-02-24T22:53:06.824Z,49.42
2018-02-24T22:55:34.238Z,48.74
2018-02-24T22:58:01.671Z,49.20
2018-02-24T23:00:29.094Z,48.56
2018-02-24T23:02:56.509Z,48.48
2018-02-24T23:05:23.949Z,48.79
2018-02-24T23:07:51.361Z,48.76
2018-02-24T23:10:18.792Z,49.19
2018-02-24T23:12:46.222Z,49.25
2018-02-24T23:15:13.650Z,48.93
2018-02-24T23:17:41.073Z,49.29
2018-02-24T23:20:08.498Z,49.96
2018-02-24T23:22:35.912Z,51.20
2018-02-24T23:25:03.335Z,50.02
2018-02-24T23:27:30.765Z,49.46
2018-02-24T23:29:58.181Z,48.78
2018-02-24T23:32:25.591Z,49.87
2018-02-24T23:34:53.019Z,49.62
2018-02-24T23:37:20.429Z,49.37
2018-02-24T23:39:47.849Z,50.11
2018-02-24T23:42:15.291Z,49.74
2018-02-24T23:44:42.702Z,50.58
2018-02-24T23:47:10.118Z,50.47
2018-02-24T23:49:37.562Z,49.51
2018-02-24T23:52:04.976Z,48.95
2018-02-24T23:54:32.391Z,49.96
2018-02-24T23:56:59.813Z,49.77
2018-02-24T23:59:27.234Z,49.33
